Time;durP1;ratioP1;P1;durP2;ratioP2;P2;SDS_P1;SDS_P2;PMS_P1;PMS_P2;Temp;Humidity;BMP_temperature;BMP_pressure;BME280_temperature;BME280_humidity;BME280_pressure;Samples;Min_cycle;Max_cycle;Signal;HPM_P1;HPM_P2
2023/05/29 00:00:38;;;;;;;11.43;2.88;;;18.90;59.90;;;;;;4175237;28;20055;-50
2023/05/29 00:03:19;;;;;;;6.13;2.45;;;18.90;59.90;;;;;;4175322;28;20775;-44
2023/05/29 00:06:00;;;;;;;9.38;2.42;;;18.90;59.70;;;;;;4175300;28;20126;-47
2023/05/29 00:08:41;;;;;;;9.75;2.45;;;18.90;59.90;;;;;;4175406;28;20055;-49
2023/05/29 00:11:22;;;;;;;10.50;3.00;;;18.90;59.90;;;;;;4175288;28;20055;-47
2023/05/29 00:14:05;;;;;;;;;;;18.90;60.10;;;;;;4175741;28;20060;-44
2023/05/29 00:16:46;;;;;;;11.80;2.63;;;18.80;59.80;;;;;;4175341;28;19944;-49
2023/05/29 00:19:27;;;;;;;;;;;18.90;60.90;;;;;;4175893;28;20067;-44
2023/05/29 00:22:08;;;;;;;8.98;2.50;;;18.90;60.50;;;;;;4178616;28;19931;-49
2023/05/29 00:24:49;;;;;;;11.95;2.63;;;18.80;61.20;;;;;;4178384;28;20492;-47
2023/05/29 00:27:30;;;;;;;8.85;2.22;;;18.80;60.60;;;;;;4178345;28;20052;-46
2023/05/29 00:30:13;;;;;;;10.15;2.60;;;18.80;60.30;;;;;;4178460;28;20051;-49
2023/05/29 00:32:54;;;;;;;11.25;2.75;;;18.80;60.20;;;;;;4178570;28;20052;-45
2023/05/29 00:35:35;;;;;;;9.23;2.95;;;18.80;60.40;;;;;;4178214;28;20179;-45
2023/05/29 00:38:16;;;;;;;12.68;2.72;;;18.80;60.30;;;;;;4177958;28;20434;-48
2023/05/29 00:40:58;;;;;;;12.15;3.05;;;18.80;60.40;;;;;;4178071;28;20064;-43
2023/05/29 00:43:39;;;;;;;12.13;2.85;;;18.80;60.40;;;;;;4176836;28;20068;-48
2023/05/29 00:46:22;;;;;;;13.23;2.72;;;18.80;60.40;;;;;;4176968;28;20138;-46
2023/05/29 00:49:05;;;;;;;10.82;2.70;;;18.80;60.30;;;;;;4176620;28;20126;-47
2023/05/29 00:51:46;;;;;;;9.73;2.55;;;18.80;60.40;;;;;;4176788;28;20067;-45
2023/05/29 00:54:29;;;;;;;;;;;18.80;60.30;;;;;;4177356;28;20052;-45
2023/05/29 00:57:10;;;;;;;10.57;2.90;;;18.70;60.50;;;;;;4207533;28;19943;-46
2023/05/29 00:59:52;;;;;;;14.05;2.33;;;18.70;61.40;;;;;;4210800;28;20047;-46
2023/05/29 01:02:36;;;;;;;11.85;2.22;;;18.70;60.80;;;;;;4210599;28;20051;-44
2023/05/29 01:05:19;;;;;;;14.80;2.67;;;18.70;60.40;;;;;;4210581;28;20221;-48
2023/05/29 01:08:00;;;;;;;12.75;3.05;;;18.70;60.50;;;;;;4209879;28;20101;-47
2023/05/29 01:10:42;;;;;;;8.75;2.50;;;18.70;60.50;;;;;;4198140;28;20532;-49
2023/05/29 01:13:28;;;;;;;8.98;2.75;;;18.70;60.50;;;;;;4209219;28;20055;-46
2023/05/29 01:16:17;;;;;;;8.10;2.03;;;18.70;60.80;;;;;;4210736;28;20100;-46
2023/05/29 01:19:12;;;;;;;10.82;2.72;;;18.70;60.50;;;;;;4209507;28;20051;-47
2023/05/29 01:22:01;;;;;;;14.13;3.35;;;18.70;60.20;;;;;;4193970;28;20059;-48
2023/05/29 01:24:50;;;;;;;11.77;2.88;;;18.70;61.40;;;;;;4208935;28;20181;-47
2023/05/29 01:27:34;;;;;;;12.70;2.47;;;18.70;60.80;;;;;;4207130;28;20048;-48
2023/05/29 01:30:16;;;;;;;7.72;2.38;;;18.60;61.10;;;;;;4193505;28;20395;-47
2023/05/29 01:32:57;;;;;;;14.80;2.53;;;18.60;61.10;;;;;;4193733;28;20164;-46
2023/05/29 01:35:38;;;;;;;10.05;2.65;;;18.60;61.20;;;;;;4192782;28;20055;-48
2023/05/29 01:38:18;;;;;;;13.97;3.03;;;18.60;61.20;;;;;;4205183;28;20058;-46
2023/05/29 01:41:00;;;;;;;12.02;2.58;;;18.60;61.20;;;;;;4164643;28;20286;-44
2023/05/29 01:43:43;;;;;;;10.55;2.80;;;18.60;61.10;;;;;;4177398;28;20055;-49
2023/05/29 01:46:25;;;;;;;10.63;2.85;;;18.60;61.40;;;;;;4177182;28;20048;-46
2023/05/29 01:49:07;;;;;;;15.48;2.90;;;18.60;61.50;;;;;;4182700;28;20177;-47
2023/05/29 01:51:48;;;;;;;;;;;18.60;61.50;;;;;;4194246;28;20822;-48
2023/05/29 01:54:29;;;;;;;8.27;2.50;;;18.60;61.60;;;;;;4192364;28;19944;-44
2023/05/29 01:57:11;;;;;;;8.90;2.53;;;18.60;62.40;;;;;;4192286;28;20129;-45
2023/05/29 01:59:54;;;;;;;12.18;2.85;;;18.60;61.90;;;;;;4192106;28;20712;-46
2023/05/29 02:02:38;;;;;;;8.75;2.63;;;18.60;61.50;;;;;;4205147;28;20168;-52
2023/05/29 02:05:19;;;;;;;12.95;3.10;;;18.50;61.20;;;;;;4209549;28;20217;-50
2023/05/29 02:08:00;;;;;;;13.55;2.95;;;18.60;61.20;;;;;;4195214;28;20830;-52
2023/05/29 02:10:42;;;;;;;8.80;2.50;;;18.50;61.00;;;;;;4194228;28;20051;-51
2023/05/29 02:13:23;;;;;;;10.18;2.40;;;18.50;61.20;;;;;;4192524;28;20058;-50
2023/05/29 02:16:06;;;;;;;;;;;18.50;61.20;;;;;;4192636;28;20055;-51
2023/05/29 02:18:47;;;;;;;11.90;2.53;;;18.50;61.30;;;;;;4188010;28;19931;-51
2023/05/29 02:21:29;;;;;;;11.02;2.63;;;18.50;62.10;;;;;;4175238;28;20095;-51
2023/05/29 02:24:10;;;;;;;10.00;2.28;;;18.50;61.50;;;;;;4176640;28;20043;-52
2023/05/29 02:26:51;;;;;;;10.02;2.97;;;18.50;61.20;;;;;;4186645;28;20078;-51
2023/05/29 02:29:32;;;;;;;12.65;2.90;;;18.50;61.40;;;;;;4191654;28;20040;-54
2023/05/29 02:32:15;;;;;;;9.82;2.80;;;18.50;61.20;;;;;;4191866;28;20046;-53
2023/05/29 02:34:56;;;;;;;9.98;2.38;;;18.50;61.00;;;;;;4191429;28;20404;-52
2023/05/29 02:37:37;;;;;;;9.65;2.17;;;18.50;60.90;;;;;;4193264;28;20052;-49
2023/05/29 02:40:18;;;;;;;7.47;1.85;;;18.40;60.80;;;;;;4209616;28;20055;-51
2023/05/29 02:43:00;;;;;;;8.70;2.28;;;18.40;60.90;;;;;;4207388;28;20623;-49
2023/05/29 02:45:41;;;;;;;11.23;2.65;;;18.40;61.00;;;;;;4191704;28;20117;-51
2023/05/29 02:48:24;;;;;;;9.80;2.50;;;18.40;61.10;;;;;;4192578;28;20506;-53
2023/05/29 02:51:06;;;;;;;9.23;1.90;;;18.40;61.10;;;;;;4174601;28;20126;-51
2023/05/29 02:53:48;;;;;;;8.88;2.38;;;18.40;61.20;;;;;;4175055;28;20052;-53
2023/05/29 02:56:29;;;;;;;8.20;2.30;;;18.40;61.40;;;;;;4174729;28;20052;-49
2023/05/29 02:59:10;;;;;;;8.85;2.38;;;18.40;61.50;;;;;;4174891;28;20060;-53
2023/05/29 03:01:51;;;;;;;10.63;2.33;;;18.40;62.40;;;;;;4175679;28;20098;-54
2023/05/29 03:04:34;;;;;;;11.77;2.30;;;18.40;61.70;;;;;;4185901;28;20048;-49
2023/05/29 03:07:15;;;;;;;8.05;2.53;;;18.40;61.60;;;;;;4175618;28;20126;-50
2023/05/29 03:09:56;;;;;;;7.32;2.13;;;18.40;61.60;;;;;;4174711;28;20059;-52
2023/05/29 03:12:41;;;;;;;11.15;1.85;;;18.40;61.70;;;;;;4163228;28;20506;-50
2023/05/29 03:15:22;;;;;;;10.70;2.17;;;18.40;61.80;;;;;;4174466;28;20059;-52
2023/05/29 03:18:03;;;;;;;8.30;2.13;;;18.40;61.70;;;;;;4174424;28;20067;-51
2023/05/29 03:20:47;;;;;;;6.25;2.03;;;18.40;61.70;;;;;;4174027;28;20052;-52
2023/05/29 03:23:29;;;;;;;8.00;2.13;;;18.40;61.50;;;;;;4176253;28;20064;-50
2023/05/29 03:26:10;;;;;;;12.45;2.83;;;18.40;61.10;;;;;;4191086;28;20055;-49
2023/05/29 03:28:52;;;;;;;9.43;2.60;;;18.40;61.10;;;;;;4190834;28;20055;-50
2023/05/29 03:31:33;;;;;;;12.57;2.50;;;18.40;61.20;;;;;;4192333;28;20055;-49
2023/05/29 03:34:14;;;;;;;;;;;18.40;61.40;;;;;;4191087;28;20076;-53
2023/05/29 03:37:02;;;;;;;14.02;2.72;;;18.40;61.30;;;;;;4192036;28;20366;-53
2023/05/29 03:39:45;;;;;;;8.50;2.05;;;18.30;62.00;;;;;;4191657;28;20055;-53
2023/05/29 03:42:27;;;;;;;9.13;2.60;;;18.30;61.70;;;;;;4190918;28;20051;-51
2023/05/29 03:45:09;;;;;;;10.00;2.65;;;18.30;61.50;;;;;;4190597;28;20198;-50
2023/05/29 03:47:53;;;;;;;5.93;2.25;;;18.30;61.10;;;;;;4190972;28;20055;-52
2023/05/29 03:50:34;;;;;;;10.60;2.78;;;18.30;61.40;;;;;;4190533;28;20052;-51
2023/05/29 03:53:16;;;;;;;16.23;2.77;;;18.30;61.00;;;;;;4192367;28;20391;-49
2023/05/29 03:55:57;;;;;;;11.02;2.50;;;18.30;60.40;;;;;;4187250;28;20064;-51
2023/05/29 03:58:38;;;;;;;8.32;3.20;;;18.30;60.50;;;;;;4177747;28;20396;-47
2023/05/29 04:01:20;;;;;;;8.02;1.98;;;18.30;60.60;;;;;;4177565;28;20565;-50
2023/05/29 04:04:01;;;;;;;10.18;2.60;;;18.20;60.60;;;;;;4184135;28;20141;-51
2023/05/29 04:06:42;;;;;;;13.38;2.50;;;18.20;60.60;;;;;;4193414;28;20606;-53
2023/05/29 04:09:26;;;;;;;12.02;3.08;;;18.20;59.80;;;;;;4194833;28;20202;-51
2023/05/29 04:12:08;;;;;;;13.23;3.20;;;18.20;59.80;;;;;;4195831;28;20118;-51
2023/05/29 04:14:49;;;;;;;9.52;2.53;;;18.20;58.70;;;;;;4190638;28;20059;-52
2023/05/29 04:17:31;;;;;;;6.30;2.10;;;18.20;58.80;;;;;;4194909;28;20058;-51
2023/05/29 04:20:13;;;;;;;7.07;2.30;;;18.20;59.20;;;;;;4194748;28;20400;-51
2023/05/29 04:22:54;;;;;;;7.78;2.20;;;18.20;59.20;;;;;;4194034;28;20056;-52
2023/05/29 04:25:36;;;;;;;;;;;18.20;58.80;;;;;;4195557;28;20141;-53
2023/05/29 04:28:21;;;;;;;7.88;2.45;;;18.20;58.90;;;;;;4200644;28;19930;-52
2023/05/29 04:31:02;;;;;;;9.05;2.53;;;18.10;59.80;;;;;;4210175;28;20047;-52
2023/05/29 04:33:45;;;;;;;9.10;2.50;;;18.10;59.20;;;;;;4207396;28;20047;-50
2023/05/29 04:36:26;;;;;;;9.02;2.40;;;18.10;58.60;;;;;;4182268;28;20055;-54
2023/05/29 04:39:18;;;;;;;8.45;2.58;;;18.10;58.90;;;;;;4181852;28;20075;-52
2023/05/29 04:42:00;;;;;;;9.18;2.45;;;18.10;59.40;;;;;;4194626;28;20151;-51
2023/05/29 04:44:43;;;;;;;6.82;2.20;;;18.10;59.10;;;;;;4196256;28;20055;-51
2023/05/29 04:47:24;;;;;;;11.45;2.63;;;18.10;59.00;;;;;;4207586;28;20047;-50
2023/05/29 04:50:05;;;;;;;13.10;3.13;;;18.10;58.90;;;;;;4209892;28;20170;-52
2023/05/29 04:52:46;;;;;;;;;;;18.10;58.10;;;;;;4210230;28;20584;-53
2023/05/29 04:55:27;;;;;;;6.88;2.15;;;18.10;57.70;;;;;;4193055;28;19928;-50
2023/05/29 04:58:12;;;;;;;11.95;2.83;;;18.10;57.80;;;;;;4193297;28;20050;-50
2023/05/29 05:00:57;;;;;;;11.43;2.55;;;18.10;58.00;;;;;;4196422;28;20052;-53
2023/05/29 05:03:41;;;;;;;10.40;2.85;;;18.10;58.20;;;;;;4210120;28;20452;-50
2023/05/29 05:06:22;;;;;;;12.10;3.20;;;18.10;58.40;;;;;;4200080;28;20063;-51
2023/05/29 05:09:03;;;;;;;9.25;3.03;;;18.00;58.00;;;;;;4208323;28;20051;-50
2023/05/29 05:11:44;;;;;;;;;;;18.00;58.10;;;;;;4183967;28;20075;-51
2023/05/29 05:14:27;;;;;;;8.75;2.40;;;18.00;58.10;;;;;;4176455;28;19932;-51
2023/05/29 05:17:10;;;;;;;13.70;2.80;;;18.00;57.80;;;;;;4176261;28;20072;-49
2023/05/29 05:19:52;;;;;;;11.00;2.95;;;18.00;58.00;;;;;;4183053;28;20194;-50
2023/05/29 05:22:33;;;;;;;13.63;3.00;;;18.00;57.80;;;;;;4192926;28;20056;-52
2023/05/29 05:25:14;;;;;;;13.82;3.05;;;18.00;58.30;;;;;;4193053;28;20125;-49
2023/05/29 05:27:55;;;;;;;16.23;3.63;;;18.00;57.90;;;;;;4192648;28;20502;-51
2023/05/29 05:30:39;;;;;;;14.63;3.50;;;18.00;57.80;;;;;;4192791;28;20182;-48
2023/05/29 05:33:20;;;;;;;8.35;2.95;;;18.00;57.60;;;;;;4193793;28;20133;-49
2023/05/29 05:36:01;;;;;;;13.88;2.90;;;18.00;57.10;;;;;;4192592;28;20518;-50
2023/05/29 05:38:42;;;;;;;11.23;2.90;;;18.00;56.90;;;;;;4192564;28;20499;-53
2023/05/29 05:41:23;;;;;;;;;;;18.00;57.10;;;;;;4176439;28;20051;-50
2023/05/29 05:44:05;;;;;;;13.43;2.83;;;18.00;57.60;;;;;;4176375;28;20386;-54
2023/05/29 05:46:54;;;;;;;15.45;3.55;;;18.00;57.40;;;;;;4192238;28;20060;-54
2023/05/29 05:49:35;;;;;;;12.60;3.40;;;17.90;57.00;;;;;;4192536;28;20181;-51
2023/05/29 05:52:16;;;;;;;12.10;3.05;;;17.90;56.70;;;;;;4192496;28;20110;-54
2023/05/29 05:54:58;;;;;;;13.43;2.95;;;17.90;57.00;;;;;;4192275;28;20055;-51
2023/05/29 05:57:39;;;;;;;16.17;3.55;;;17.90;57.00;;;;;;4207131;28;20059;-50
2023/05/29 06:00:21;;;;;;;11.10;3.22;;;17.90;56.80;;;;;;4208587;28;20059;-50
2023/05/29 06:03:03;;;;;;;17.67;4.50;;;17.90;56.80;;;;;;4210042;28;20070;-53
2023/05/29 06:06:06;;;;;;;12.95;3.65;;;17.90;57.00;;;;;;4208289;28;20054;-54
2023/05/29 06:08:48;;;;;;;11.52;3.35;;;17.90;56.80;;;;;;4206481;28;20410;-50
2023/05/29 06:11:30;;;;;;;15.10;3.90;;;17.90;56.90;;;;;;4208084;28;20556;-52
2023/05/29 06:14:12;;;;;;;16.40;3.78;;;17.90;56.90;;;;;;4208672;28;20120;-51
2023/05/29 06:16:53;;;;;;;11.13;4.30;;;17.90;56.90;;;;;;4175770;28;20070;-50
2023/05/29 06:19:35;;;;;;;12.35;3.70;;;17.90;57.30;;;;;;4175310;28;20060;-50
2023/05/29 06:22:19;;;;;;;14.07;3.90;;;17.90;56.70;;;;;;4175548;28;20499;-51
2023/05/29 06:25:00;;;;;;;13.10;3.28;;;17.90;57.00;;;;;;4203472;28;20050;-51
2023/05/29 06:27:44;;;;;;;17.20;3.97;;;17.90;56.50;;;;;;4193018;28;20079;-48
2023/05/29 06:30:25;;;;;;;13.30;3.42;;;17.90;56.70;;;;;;4191999;28;20056;-52
2023/05/29 06:33:06;;;;;;;14.95;3.47;;;17.90;56.80;;;;;;4191860;28;20408;-50
2023/05/29 06:35:51;;;;;;;11.63;3.33;;;17.90;56.40;;;;;;4192464;28;20052;-52
2023/05/29 06:38:32;;;;;;;15.10;3.85;;;17.90;56.70;;;;;;4191872;28;20106;-50
2023/05/29 06:41:20;;;;;;;19.45;3.50;;;17.90;56.40;;;;;;4180731;28;20059;-48
2023/05/29 06:44:03;;;;;;;14.43;3.70;;;17.90;56.70;;;;;;4191199;28;20051;-50
2023/05/29 06:46:45;;;;;;;9.95;2.90;;;18.00;56.80;;;;;;4191513;28;20055;-53
2023/05/29 06:49:26;;;;;;;14.75;3.85;;;17.90;57.10;;;;;;4194672;28;20055;-49
2023/05/29 06:52:09;;;;;;;13.20;3.42;;;17.90;57.00;;;;;;4191659;28;20055;-52
2023/05/29 06:55:10;;;;;;;14.13;3.55;;;17.90;56.90;;;;;;4190378;28;20130;-50
2023/05/29 06:57:51;;;;;;;10.93;3.53;;;17.90;57.20;;;;;;4178611;28;20063;-51
2023/05/29 07:00:32;;;;;;;17.80;3.92;;;17.90;57.40;;;;;;4188134;28;20051;-50
2023/05/29 07:03:33;;;;;;;12.85;3.38;;;18.00;57.10;;;;;;4192375;28;20055;-49
2023/05/29 07:06:16;;;;;;;10.35;3.30;;;18.00;56.90;;;;;;4186405;28;20082;-50
2023/05/29 07:08:58;;;;;;;13.93;3.15;;;18.00;56.60;;;;;;4172553;28;20450;-50
2023/05/29 07:11:39;;;;;;;14.52;3.30;;;18.00;56.50;;;;;;4190982;28;20187;-49
2023/05/29 07:14:20;;;;;;;13.18;2.92;;;18.00;56.60;;;;;;4191796;28;20102;-50
2023/05/29 07:17:01;;;;;;;15.18;3.53;;;18.00;56.50;;;;;;4191475;28;20454;-52
2023/05/29 07:19:42;;;;;;;13.63;3.35;;;18.00;56.70;;;;;;4190950;28;20082;-50
2023/05/29 07:22:24;;;;;;;;;;;18.00;56.80;;;;;;4191097;28;20514;-51
2023/05/29 07:25:07;;;;;;;;;;;18.00;56.80;;;;;;4191237;28;19938;-49
2023/05/29 07:27:48;;;;;;;10.48;3.50;;;18.00;56.80;;;;;;4190468;28;19931;-51
2023/05/29 07:30:30;;;;;;;17.13;3.90;;;18.00;57.30;;;;;;4190504;28;20137;-52
2023/05/29 07:33:11;;;;;;;16.58;3.95;;;18.00;56.30;;;;;;4174647;28;20051;-48
2023/05/29 07:35:52;;;;;;;15.77;3.88;;;18.00;56.40;;;;;;4174583;28;20602;-53
2023/05/29 07:38:33;;;;;;;12.23;3.67;;;18.00;56.60;;;;;;4172819;28;20134;-48
2023/05/29 07:41:17;;;;;;;;;;;18.00;56.30;;;;;;4184484;28;20064;-49
2023/05/29 07:44:05;;;;;;;20.13;4.13;;;18.00;56.20;;;;;;4174370;28;19932;-49
2023/05/29 07:46:46;;;;;;;15.85;3.47;;;18.00;56.30;;;;;;4190780;28;20191;-49
2023/05/29 07:49:45;;;;;;;15.13;3.70;;;18.00;56.10;;;;;;4185750;28;20079;-49
2023/05/29 07:52:27;;;;;;;;;;;18.10;56.30;;;;;;4207759;28;20051;-50
2023/05/29 07:55:09;;;;;;;12.18;3.60;;;18.10;56.00;;;;;;4193196;28;20282;-52
2023/05/29 07:57:52;;;;;;;14.50;4.03;;;18.10;56.30;;;;;;4207464;28;20050;-49
2023/05/29 08:00:34;;;;;;;18.30;4.40;;;18.10;56.10;;;;;;4194281;28;20056;-52
2023/05/29 08:03:16;;;;;;;17.10;7.72;;;18.10;56.30;;;;;;4181500;28;20795;-48
2023/05/29 08:06:16;;;;;;;15.23;3.92;;;18.20;56.40;;;;;;4174677;28;20052;-48
2023/05/29 08:08:59;;;;;;;19.65;3.72;;;18.20;56.20;;;;;;4173669;28;20098;-48
2023/05/29 08:11:41;;;;;;;9.68;3.38;;;18.20;56.00;;;;;;4189825;28;20067;-53
2023/05/29 08:14:23;;;;;;;13.93;3.42;;;18.20;56.20;;;;;;4190831;28;20053;-52
2023/05/29 08:17:05;;;;;;;13.20;3.03;;;18.20;56.10;;;;;;4183842;28;20141;-53
2023/05/29 08:19:46;;;;;;;;;;;18.30;56.20;;;;;;4207184;28;20067;-50
2023/05/29 08:22:30;;;;;;;10.82;3.22;;;18.20;56.00;;;;;;4207873;28;19931;-51
2023/05/29 08:25:12;;;;;;;15.75;3.60;;;18.30;56.40;;;;;;4208214;28;20051;-48
2023/05/29 08:27:53;;;;;;;15.40;3.03;;;18.30;56.20;;;;;;4203327;28;20048;-53
2023/05/29 08:30:36;;;;;;;14.32;3.53;;;18.30;56.00;;;;;;4191760;28;20060;-48
2023/05/29 08:33:18;;;;;;;7.28;3.38;;;18.30;56.30;;;;;;4191785;28;20125;-51
2023/05/29 08:35:59;;;;;;;14.55;3.67;;;18.30;55.80;;;;;;4191740;28;20051;-50
2023/05/29 08:38:41;;;;;;;12.68;3.40;;;18.30;56.20;;;;;;4187220;28;20060;-48
2023/05/29 08:41:27;;;;;;;15.48;3.60;;;18.30;56.40;;;;;;4194103;28;20121;-50
2023/05/29 08:44:13;;;;;;;16.90;4.25;;;18.40;56.40;;;;;;4194261;28;20055;-48
2023/05/29 08:46:57;;;;;;;17.30;4.55;;;18.40;56.80;;;;;;4180896;28;20060;-48
2023/05/29 08:49:42;;;;;;;13.13;3.92;;;18.40;56.50;;;;;;4194162;28;20055;-49
2023/05/29 08:52:26;;;;;;;14.98;3.97;;;18.40;56.50;;;;;;4198150;28;20348;-47
2023/05/29 08:55:08;;;;;;;9.60;3.30;;;18.40;57.20;;;;;;4194974;28;20055;-53
2023/05/29 08:57:50;;;;;;;14.95;4.13;;;18.40;56.60;;;;;;4186298;28;20174;-48
2023/05/29 09:00:32;;;;;;;11.68;3.50;;;18.40;56.50;;;;;;4194190;28;20048;-50
2023/05/29 09:03:15;;;;;;;14.65;4.10;;;18.40;56.30;;;;;;4192567;28;20075;-52
2023/05/29 09:06:00;;;;;;;21.92;4.65;;;18.40;56.20;;;;;;4194042;28;20121;-52
2023/05/29 09:08:41;;;;;;;17.30;3.80;;;18.40;56.20;;;;;;4177597;28;20052;-51
2023/05/29 09:11:22;;;;;;;17.77;3.40;;;18.40;56.20;;;;;;4177607;28;20056;-54
2023/05/29 09:14:03;;;;;;;16.48;4.00;;;18.50;56.20;;;;;;4177782;28;20118;-52
2023/05/29 09:16:44;;;;;;;8.65;3.40;;;18.50;56.20;;;;;;4177640;28;20118;-48
2023/05/29 09:19:26;;;;;;;14.98;3.28;;;18.50;56.20;;;;;;4180393;28;20076;-49
2023/05/29 09:22:09;;;;;;;18.27;3.80;;;18.50;56.40;;;;;;4194092;28;20565;-50
2023/05/29 09:24:50;;;;;;;11.95;4.50;;;18.50;56.00;;;;;;4194271;28;20182;-51
2023/05/29 09:27:31;;;;;;;12.43;3.70;;;18.50;56.20;;;;;;4194108;28;20178;-53
2023/05/29 09:30:21;;;;;;;18.58;4.40;;;18.50;56.60;;;;;;4194055;28;20105;-53
2023/05/29 09:33:02;;;;;;;18.90;3.90;;;18.50;56.30;;;;;;4207309;28;20490;-51
2023/05/29 09:35:46;;;;;;;16.05;3.50;;;18.60;56.60;;;;;;4194051;28;20093;-51
2023/05/29 09:38:27;;;;;;;14.60;4.45;;;18.60;56.30;;;;;;4192860;28;20051;-52
2023/05/29 09:41:28;;;;;;;15.55;3.78;;;18.60;56.50;;;;;;4193500;28;20482;-53
2023/05/29 09:44:13;;;;;;;12.82;3.75;;;18.60;56.70;;;;;;4193313;28;20193;-53
2023/05/29 09:46:59;;;;;;;11.10;4.00;;;18.60;56.40;;;;;;4193705;28;20498;-48
2023/05/29 09:49:43;;;;;;;17.63;4.35;;;18.60;56.30;;;;;;4207850;28;20051;-50
2023/05/29 09:52:25;;;;;;;16.58;3.83;;;18.60;56.40;;;;;;4210052;27;20505;-51
2023/05/29 09:55:07;;;;;;;14.00;3.55;;;18.60;56.20;;;;;;4175879;28;20039;-51
2023/05/29 09:57:49;;;;;;;15.93;3.78;;;18.70;56.40;;;;;;4176737;28;20071;-53
2023/05/29 10:00:30;;;;;;;14.10;4.15;;;18.70;56.40;;;;;;4198373;28;20071;-54
2023/05/29 10:03:12;;;;;;;18.40;3.85;;;18.70;56.40;;;;;;4196165;28;20063;-49
2023/05/29 10:05:56;;;;;;;17.73;4.40;;;18.70;56.30;;;;;;4192335;28;20524;-53
2023/05/29 10:08:45;;;;;;;13.25;3.92;;;18.70;56.10;;;;;;4194025;28;20182;-53
2023/05/29 10:11:27;;;;;;;13.05;3.70;;;18.70;56.10;;;;;;4192739;28;20071;-48
2023/05/29 10:14:15;;;;;;;17.75;3.70;;;18.80;55.90;;;;;;4192497;28;20051;-48
2023/05/29 10:16:59;;;;;;;17.73;3.35;;;18.80;55.80;;;;;;4191708;28;20407;-51
2023/05/29 10:19:40;;;;;;;11.90;3.13;;;18.80;55.80;;;;;;4194015;28;20055;-53
2023/05/29 10:22:25;;;;;;;14.70;4.47;;;18.80;55.90;;;;;;4192840;28;20055;-49
2023/05/29 10:25:14;;;;;;;14.00;3.47;;;18.80;56.20;;;;;;4192908;28;20109;-51
2023/05/29 10:27:56;;;;;;;16.17;3.38;;;18.80;56.40;;;;;;4194270;28;20075;-53
2023/05/29 10:30:46;;;;;;;14.20;3.72;;;18.90;56.20;;;;;;4192688;28;20162;-55
2023/05/29 10:33:52;;;;;;;15.52;3.55;;;18.90;56.00;;;;;;4204519;28;20611;-51
2023/05/29 10:36:39;;;;;;;15.90;3.45;;;18.90;55.60;;;;;;4209579;27;20188;-51
2023/05/29 10:39:22;;;;;;;13.90;4.20;;;18.90;56.00;;;;;;4206676;28;20058;-52
2023/05/29 10:42:43;;;;;;;15.98;4.20;;;18.90;55.80;;;;;;4209643;28;20050;-49
2023/05/29 10:45:51;;;;;;;10.50;3.67;;;18.90;56.00;;;;;;4208460;28;20403;-51
2023/05/29 10:48:40;;;;;;;13.77;4.60;;;18.90;55.80;;;;;;4194203;28;20388;-51
2023/05/29 10:51:31;;;;;;;17.73;3.88;;;18.90;55.90;;;;;;4209348;28;20059;-50
2023/05/29 10:54:13;;;;;;;15.38;4.20;;;18.90;55.70;;;;;;4209378;28;20082;-51
2023/05/29 10:56:57;;;;;;;17.08;3.35;;;18.90;55.80;;;;;;4208982;28;20069;-51
2023/05/29 10:59:40;;;;;;;15.75;3.67;;;18.90;55.70;;;;;;4175991;28;20052;-53
2023/05/29 11:02:23;;;;;;;13.20;3.25;;;18.90;55.80;;;;;;4199938;28;20828;-51
2023/05/29 11:05:22;;;;;;;17.70;4.00;;;18.90;55.90;;;;;;4175993;28;20496;-51
2023/05/29 11:08:04;;;;;;;14.13;3.90;;;18.90;55.80;;;;;;4187161;28;20133;-50
2023/05/29 11:10:57;;;;;;;13.38;4.45;;;19.00;55.80;;;;;;4191335;28;20048;-50
2023/05/29 11:13:40;;;;;;;9.82;3.13;;;18.90;55.30;;;;;;4192046;28;20059;-53
2023/05/29 11:16:37;;;;;;;13.07;3.85;;;18.90;54.90;;;;;;4192388;28;20116;-50
2023/05/29 11:19:19;;;;;;;11.07;3.85;;;18.90;54.90;;;;;;4191692;28;20149;-55
2023/05/29 11:22:11;;;;;;;15.30;3.53;;;19.00;55.30;;;;;;4191632;28;20048;-53
2023/05/29 11:24:55;;;;;;;12.95;3.67;;;18.90;55.30;;;;;;4197179;28;24923;-51
2023/05/29 11:27:37;;;;;;;17.60;4.43;;;18.90;55.50;;;;;;4207513;28;20054;-49
2023/05/29 11:30:18;;;;;;;13.82;3.78;;;19.00;55.70;;;;;;4208870;28;20071;-52
2023/05/29 11:33:05;;;;;;;16.77;3.47;;;19.00;55.50;;;;;;4208866;28;20051;-51
2023/05/29 11:35:48;;;;;;;13.40;3.50;;;18.90;55.70;;;;;;4208782;28;20055;-50
2023/05/29 11:38:30;;;;;;;11.63;2.92;;;18.90;55.90;;;;;;4208790;28;20054;-52
2023/05/29 11:41:11;;;;;;;12.20;3.67;;;18.90;55.70;;;;;;4206820;28;20051;-52
2023/05/29 11:44:01;;;;;;;12.85;3.50;;;18.90;55.70;;;;;;4208483;28;20089;-49
2023/05/29 11:46:42;;;;;;;12.40;3.70;;;19.00;55.80;;;;;;4207130;28;20580;-52
2023/05/29 11:49:31;;;;;;;14.82;3.83;;;19.00;55.90;;;;;;4207242;28;20059;-50
2023/05/29 11:52:14;;;;;;;15.82;3.90;;;19.00;55.50;;;;;;4207219;28;20114;-53
2023/05/29 11:55:07;;;;;;;13.75;3.70;;;19.00;55.50;;;;;;4207409;28;20173;-50
2023/05/29 11:57:48;;;;;;;12.10;3.70;;;19.00;55.90;;;;;;4207051;28;24345;-51
2023/05/29 12:00:33;;;;;;;13.85;3.47;;;19.00;55.40;;;;;;4208647;28;20043;-55
2023/05/29 12:03:14;;;;;;;14.38;4.05;;;19.00;55.20;;;;;;4207443;28;20063;-54
2023/05/29 12:05:57;;;;;;;10.32;2.97;;;19.00;55.40;;;;;;4208015;28;20046;-52
2023/05/29 12:08:39;;;;;;;17.88;3.85;;;19.10;55.10;;;;;;4208324;28;20050;-53
2023/05/29 12:11:24;;;;;;;;;;;19.10;55.40;;;;;;4207654;28;20768;-53
2023/05/29 12:14:05;;;;;;;13.43;3.65;;;19.10;55.30;;;;;;4196095;28;19932;-50
2023/05/29 12:16:46;;;;;;;10.70;3.97;;;19.10;55.50;;;;;;4178480;28;20064;-52
2023/05/29 12:19:27;;;;;;;13.45;3.55;;;19.10;55.50;;;;;;4178261;28;20579;-53
2023/05/29 12:22:10;;;;;;;;;;;19.10;55.40;;;;;;4178792;28;20052;-52
2023/05/29 12:24:51;;;;;;;11.77;3.05;;;19.10;55.40;;;;;;4177129;28;20021;-53
2023/05/29 12:27:37;;;;;;;13.65;3.83;;;19.10;55.40;;;;;;4177806;28;20427;-52
2023/05/29 12:30:21;;;;;;;11.68;3.70;;;19.10;55.10;;;;;;4183825;28;20059;-51
2023/05/29 12:33:27;;;;;;;12.50;3.25;;;19.10;55.70;;;;;;4194055;28;20514;-52
2023/05/29 12:36:10;;;;;;;15.93;4.22;;;19.10;55.10;;;;;;4187385;28;20406;-51
2023/05/29 12:38:53;;;;;;;13.55;3.72;;;19.10;55.30;;;;;;4199620;28;20386;-54
2023/05/29 12:41:35;;;;;;;9.05;2.75;;;19.10;55.40;;;;;;4195510;28;20052;-49
2023/05/29 12:44:19;;;;;;;11.48;3.25;;;19.20;55.40;;;;;;4194506;28;20055;-50
2023/05/29 12:47:00;;;;;;;11.55;3.40;;;19.20;55.10;;;;;;4178141;28;20052;-50
2023/05/29 12:49:41;;;;;;;9.00;3.03;;;19.20;55.20;;;;;;4193482;28;20043;-53
2023/05/29 12:52:24;;;;;;;10.55;3.33;;;19.20;55.10;;;;;;4194339;28;20059;-53
2023/05/29 12:55:07;;;;;;;10.43;3.22;;;19.20;55.00;;;;;;4199147;28;20051;-49
2023/05/29 12:57:48;;;;;;;11.18;3.38;;;19.20;55.00;;;;;;4210819;28;20489;-49
2023/05/29 13:00:30;;;;;;;8.25;2.95;;;19.20;54.40;;;;;;4209712;28;20051;-48
2023/05/29 13:03:11;;;;;;;;;;;19.20;54.10;;;;;;4211033;28;20625;-50
2023/05/29 13:05:52;;;;;;;10.47;3.13;;;19.20;54.60;;;;;;4210415;28;19969;-51
2023/05/29 13:08:33;;;;;;;9.32;2.88;;;19.30;54.40;;;;;;4210948;28;20054;-50
2023/05/29 13:11:16;;;;;;;9.25;2.45;;;19.20;54.40;;;;;;4209112;28;20056;-51
2023/05/29 13:13:56;;;;;;;9.52;2.83;;;19.20;54.20;;;;;;4210874;28;20079;-50
2023/05/29 13:16:38;;;;;;;8.68;3.17;;;19.20;54.60;;;;;;4210442;28;20185;-48
2023/05/29 13:19:19;;;;;;;6.82;2.50;;;19.30;54.30;;;;;;4209943;28;20379;-49
2023/05/29 13:22:00;;;;;;;14.70;3.22;;;19.30;55.00;;;;;;4201583;28;20063;-50
2023/05/29 13:24:41;;;;;;;13.73;2.80;;;19.30;54.40;;;;;;4193087;28;20186;-49
2023/05/29 13:27:23;;;;;;;16.88;3.30;;;19.30;54.50;;;;;;4193201;28;20056;-53
2023/05/29 13:30:06;;;;;;;9.93;3.30;;;19.30;54.50;;;;;;4192881;28;20490;-52
2023/05/29 13:32:47;;;;;;;9.15;3.03;;;19.30;54.10;;;;;;4193763;28;20063;-50
2023/05/29 13:35:28;;;;;;;8.38;2.88;;;19.30;54.00;;;;;;4193537;28;20510;-54
2023/05/29 13:38:09;;;;;;;11.80;2.80;;;19.40;53.90;;;;;;4188696;28;20116;-50
2023/05/29 13:40:50;;;;;;;8.88;2.90;;;19.40;53.70;;;;;;4193833;28;20855;-52
2023/05/29 13:43:33;;;;;;;;;;;19.40;53.90;;;;;;4194390;28;20044;-51
2023/05/29 13:46:24;;;;;;;9.45;2.75;;;19.40;54.20;;;;;;4192035;28;19935;-52
2023/05/29 13:49:07;;;;;;;9.43;2.60;;;19.40;54.20;;;;;;4193896;28;20048;-49
2023/05/29 13:51:48;;;;;;;9.02;3.15;;;19.40;54.00;;;;;;4193757;28;20123;-50
2023/05/29 13:54:29;;;;;;;8.43;3.05;;;19.40;53.60;;;;;;4177078;28;20056;-51
2023/05/29 13:57:10;;;;;;;9.00;2.63;;;19.40;53.70;;;;;;4177008;28;20060;-49
2023/05/29 13:59:53;;;;;;;12.45;2.50;;;19.40;54.00;;;;;;4177082;28;20376;-52
2023/05/29 14:02:34;;;;;;;11.15;2.90;;;19.40;53.80;;;;;;4191437;28;20047;-52
2023/05/29 14:05:15;;;;;;;13.75;3.05;;;19.40;54.00;;;;;;4193341;28;20051;-50
2023/05/29 14:07:57;;;;;;;9.68;2.80;;;19.40;54.00;;;;;;4193142;28;20098;-52